• Join FlightAware (Why Join?)
  • Login
  • US Flag 
10:09PM EDT


 

Airport Tracker/Info


-or-


 

Live Flight TrackerFlight Track Log ✈ ASQ5740 ✈ 2013年 07月 21日 ✈ KDTW - KORD

Flight Track Log - Related Links

Times and Time Zones

All times are in EDT time to prevent confusion due to time zone crossing. See the ASQ5740 flight status page for this flight to view local times or setup timezone preferences in your user account.

Time Position Orientation Groundspeed Altitude Reporting Facility
EDT Latitude Longitude Course Direction KTS MPH feet Rate Location/Type
10:17AM 42.2289 -83.3539 285° West 163 188 1,100  Level Cleveland Center
10:18AM 42.3044 -83.3289 14° North 234 269 3,800 2,100 Climbing Cleveland Center
10:19AM 42.3694 -83.3178 North 259 298 6,100 2,220 Climbing Cleveland Center
10:20AM 42.2854 -83.6457 283° West  Level FlightAware Approximate
10:20AM 42.3933 -83.4453 284° West 278 320 9,500  Level Cleveland Center
10:21AM 42.2983 -83.7232 283° West  Level FlightAware Approximate
10:21AM 42.3989 -83.5525 274° West 283 326 11,000  Level Cleveland Center
10:22AM 42.3133 -83.8000 285° West  Level FlightAware Approximate
10:22AM 42.4061 -83.6708 275° West 299 344 12,700  Level Cleveland Center
10:23AM 42.4111 -83.7950 273° West 323 372 13,800 1,380 Climbing Cleveland Center
10:24AM 42.4158 -83.9217 273° West 332 382 15,500 1,500 Climbing Cleveland Center
10:25AM 42.4200 -84.0625 272° West 339 390 16,900 1,260 Climbing Cleveland Center
10:26AM 42.4247 -84.1783 273° West 339 390 18,100 1,380 Climbing Cleveland Center
10:29AM 42.4350 -84.4497 273° West 340 391 21,300 1,380 Climbing Chicago Center
10:30AM 42.4381 -84.5739 272° West 332 382 22,500 1,080 Climbing Chicago Center
10:31AM 42.4411 -84.6961 272° West 326 375 23,600 900 Climbing Chicago Center
10:32AM 42.4436 -84.8208 272° West 331 381 24,400 720 Climbing Chicago Center
10:33AM 42.4467 -84.9467 272° West 334 384 25,200 840 Climbing Chicago Center
10:34AM 42.4494 -85.1011 271° West 341 392 26,200 780 Climbing Chicago Center
10:35AM 42.4522 -85.2300 272° West 343 395 26,900 540 Climbing Chicago Center
10:36AM 42.4547 -85.3600 272° West 345 397 27,400 480 Climbing Chicago Center
10:37AM 42.4567 -85.4942 271° West 353 406 27,900 -300 Climbing Chicago Center
10:38AM 42.4594 -85.6303 272° West 359 413 26,900 -1,560 Descending Chicago Center
10:39AM 42.4608 -85.7642 271° West 356 410 24,700 -2,100 Descending Chicago Center
10:40AM 42.4619 -85.8914 271° West 342 394 22,600 -2,100 Descending Chicago Center
10:41AM 42.4644 -86.0397 271° West 327 376 20,400 -1,260 Descending Chicago Center
10:42AM 42.4644 -86.1628 270° West 326 375 20,000 -240 Descending Chicago Center
10:43AM 42.4647 -86.2947 270° West 345 397 20,000 -360 Level Chicago Center
10:44AM 42.4633 -86.4269 269° West 351 404 19,300 -1,140 Descending Chicago Center
10:45AM 42.4614 -86.5561 269° West 344 396 17,700 -1,620 Descending Chicago Center
10:46AM 42.4606 -86.6822 270° West 335 386 16,000 -1,740 Descending Chicago Center
10:47AM 42.4606 -86.8081 270° West 335 386 14,200 -1,860 Descending Chicago Center
10:48AM 42.4575 -86.9575 268° West 331 381 12,200 -1,860 Descending Chicago Center
10:49AM 42.4561 -87.0758 269° West 318 366 10,400 -1,500 Descending Chicago Center
10:50AM 42.4372 -87.1750 256° West 277 319 9,100 -1,440 Descending Chicago Center
10:51AM 42.4122 -87.2689 250° West 267 307 7,500 -1,020 Descending Chicago Center
10:52AM 42.3858 -87.3667 250° West 277 319 7,000 -300 Descending Chicago Center
10:53AM 42.3575 -87.4719 250° West 266 306 7,000  Level Chicago Center
10:54AM 42.3125 -87.5456 230° Southwest 239 275 7,000  Level Chicago Center
10:55AM 42.2619 -87.6011 219° Southwest 236 272 7,000 -360 Level Chicago Center
10:56AM 42.2117 -87.6589 220° Southwest 238 274 6,300 -1,080 Descending Chicago Center
10:57AM 42.1622 -87.7142 220° Southwest 235 270 4,800 -1,260 Descending Chicago Center
10:58AM 42.1211 -87.7617 221° Southwest 211 243 3,800 -1,020 Descending Chicago Center